Terminal Aerodrome Forecast
Issued by NWS

Home | Current Version | Previous Version | Text Only | Print | Product List | Glossary On
Versions: 1 2 3 4 5 6 7 8 9 10 11 12 13 14 15 16 17
000
FTUS46 KMTR 161700
TAFOAK
TAF
KOAK 161720Z 1618/1724 29006KT P6SM SKC
     FM161900 30012KT P6SM SKC
     FM170300 29007KT P6SM FEW010
     FM170900 26005KT P6SM BKN012
     FM171800 26005KT P6SM SCT015
     FM172000 26012KT P6SM FEW012=

USA.gov is the U.S. government's official web portal to all federal, state and local government web resources and services.